Warning: Javascript must be enabled to use all the features on this page!


Page Loading - Please Wait...

Click to hideNews Bulletins

Peak Streamflow for the Nation

USGS 07049000 War Eagle Creek near Hindsville, AR

Madison County, Arkansas
Hydrologic Unit Code 11010001
Latitude  36°12'00", Longitude  93°51'18" NAD83
Drainage area 263  square miles
Gage datum 1,168.06 feet above NGVD29
Output formats
Table
Graph
Tab-separated file
peakfq (watstore) format
Reselect output format
Water
Year
Date Gage
Height
(feet)
Stream-
flow
(cfs)
1943 1943-05-10 28.10 50,0007
1953 1953-05-13 12.91 9,770
1954 1954-05-02 7.47 3,810
1955 1955-03-21 14.56 11,900
1956 1956-05-15 14.84 12,300
1957 1957-04-03 23.86 34,600
1958 1958-08-02 15.04 12,200
1959 1959-06-12 10.54 5,890
1960 1960-07-25 20.25 22,700
1961 1961-05-07 23.10 31,600
1962 1962-08-01 12.25 7,980
1963 1963-03-05 6.21 2,320
1964 1964-04-05 13.12 9,950
1965 1965-05-10 16.273 11,800
1966 1966-02-10 19.84 18,200
1967 1967-04-14 9.34 3,450
1968 1967-10-30 20.30 19,200
1969 1968-12-28 18.08 14,900
1970 1970-05-01 15.26 10,200
1971 1970-10-09 14.58 9,210
1972 1971-12-10 18.80 16,200
1973 1973-04-22 22.83 24,600
1974 1973-11-25 24.05 27,900
1975 1974-11-04 18.45 15,600
1976 1976-06-25 10.18 4,160
1977 1977-03-28 17.29 13,400
1985 1985-02-23 22.88 24,700
1986 1985-11-19 28.49 49,000
1987 1987-03-18 16.44 12,000
1988 1987-12-26 17.70 14,200
1989 1989-02-14 19.70 18,000
1990 1990-05-03 25.33 33,600
1991 1991-04-18 18.06 14,800
1992 1991-10-29 16.91 12,000
1993 1993-01-04 14.02 8,430
1994 1993-11-14 13.65 7,940
1995 1995-05-08 14.75 9,440
1996 1996-04-22 16.53 12,200
1997 1996-11-07 21.82 22,500
1998 1998-01-05 15.91 11,200
1999 1999-07-01 16.52 14,000
2000 2000-06-18 16.79 15,200
2001 2001-02-15 11.49 7,730
2002 2002-04-08 22.43 27,300
2003 2003-05-16 8.41 4,420
2004 2004-04-24 19.36 19,000
2005 2004-11-01 12.35 8,610
2006 2006-05-05 12.30 8,550
2007 2006-11-30 18.37 17,100
2008 2008-03-19 26.39 41,600
2009 2009-05-06 13.58 10,100
2010 2009-10-09 18.71 17,700
2011 2011-04-25 22.31 26,900
2012 2012-03-22 15.03 11,900
2013 2013-01-30 11.75 8,100
2014 2014-03-16 12.45 8,670
2015 2015-05-25 14.19 10,800
2016 2015-12-27 26.73 43,100
2017 2017-04-26 23.67 31,200
2018 2018-03-28 16.97 14,800
2019 2019-06-24 15.09 12,000
2020 2020-01-11 18.57 17,500
?
  Peak Gage-Height Qualification Codes.
?
  Peak Streamflow Qualification Codes.